TimeEST,TemperatureF,Dew PointF,Humidity,Sea Level PressureIn,VisibilityMPH,Wind Direction,Wind SpeedMPH,Gust SpeedMPH,PrecipitationIn,Events,Conditions,WindDirDegrees,DateUTC
12:15 AM,53.6,51.8,94,29.80,10.0,NNW,9.2,-,N/A,,Overcast,340,2011-11-17 05:15:00
12:35 AM,53.6,51.8,94,29.81,10.0,NNW,8.1,-,N/A,,Overcast,340,2011-11-17 05:35:00
12:55 AM,53.6,51.8,94,29.82,10.0,NNW,5.8,-,N/A,,Overcast,330,2011-11-17 05:55:00
1:15 AM,53.6,50.0,88,29.83,10.0,NW,4.6,-,N/A,,Overcast,320,2011-11-17 06:15:00
1:35 AM,53.6,51.8,94,29.82,10.0,NNW,6.9,-,0.01,,Overcast,330,2011-11-17 06:35:00
1:55 AM,53.6,50.0,88,29.83,10.0,NNW,4.6,-,0.01,,Overcast,340,2011-11-17 06:55:00
2:15 AM,53.6,50.0,88,29.84,10.0,NW,5.8,-,N/A,,Overcast,320,2011-11-17 07:15:00
2:35 AM,53.6,50.0,88,29.85,10.0,NW,5.8,-,N/A,,Overcast,310,2011-11-17 07:35:00
2:55 AM,53.6,48.2,82,29.85,10.0,NW,5.8,-,N/A,,Overcast,320,2011-11-17 07:55:00
3:15 AM,53.6,48.2,82,29.84,10.0,NNW,6.9,-,N/A,,Overcast,330,2011-11-17 08:15:00
3:35 AM,51.8,48.2,88,29.83,10.0,NNW,5.8,-,N/A,,Overcast,330,2011-11-17 08:35:00
3:55 AM,51.8,48.2,88,29.84,10.0,NW,5.8,-,N/A,,Overcast,320,2011-11-17 08:55:00
4:15 AM,51.8,48.2,88,29.84,10.0,NNW,4.6,-,N/A,,Overcast,330,2011-11-17 09:15:00
4:35 AM,51.8,48.2,88,29.84,10.0,NW,5.8,-,N/A,,Overcast,320,2011-11-17 09:35:00
5:15 AM,51.8,48.2,88,29.83,10.0,NNW,8.1,-,N/A,,Overcast,340,2011-11-17 10:15:00
5:35 AM,51.8,48.2,88,29.84,10.0,NNW,4.6,-,N/A,,Overcast,330,2011-11-17 10:35:00
5:55 AM,51.8,46.4,82,29.83,10.0,NNW,5.8,-,N/A,,Overcast,340,2011-11-17 10:55:00
6:15 AM,51.8,46.4,82,29.83,10.0,NNW,6.9,-,N/A,,Overcast,340,2011-11-17 11:15:00
6:35 AM,51.8,46.4,82,29.83,10.0,NNW,5.8,-,N/A,,Overcast,340,2011-11-17 11:35:00
7:15 AM,51.8,44.6,76,29.86,10.0,NNW,6.9,-,N/A,,Overcast,340,2011-11-17 12:15:00
7:35 AM,50.0,44.6,82,29.87,10.0,NNW,8.1,-,N/A,,Overcast,340,2011-11-17 12:35:00
7:55 AM,48.2,41.0,76,29.88,10.0,North,11.5,-,0.01,,Overcast,350,2011-11-17 12:55:00
8:15 AM,48.2,41.0,76,29.90,10.0,NNW,5.8,-,N/A,,Overcast,330,2011-11-17 13:15:00
8:35 AM,48.2,41.0,76,29.91,10.0,NNW,6.9,-,0.01,,Overcast,330,2011-11-17 13:35:00
8:55 AM,46.4,41.0,81,29.94,9.0,NW,6.9,-,0.03,,Mostly Cloudy,320,2011-11-17 13:55:00
9:15 AM,46.4,39.2,76,29.90,10.0,North,12.7,20.7,N/A,,Overcast,350,2011-11-17 14:15:00
9:35 AM,46.4,39.2,76,29.87,10.0,North,10.4,17.3,0.01,,Mostly Cloudy,360,2011-11-17 14:35:00
9:55 AM,46.4,37.4,71,29.88,10.0,North,11.5,20.7,0.01,,Mostly Cloudy,350,2011-11-17 14:55:00
10:15 AM,44.6,35.6,71,29.87,10.0,North,10.4,16.1,N/A,,Overcast,360,2011-11-17 15:15:00
10:35 AM,44.6,33.8,66,29.87,10.0,North,13.8,17.3,N/A,,Overcast,350,2011-11-17 15:35:00
10:55 AM,44.6,32.0,61,29.87,10.0,North,13.8,21.9,N/A,,Overcast,350,2011-11-17 15:55:00
11:15 AM,42.8,33.8,70,29.89,8.0,NNW,13.8,21.9,N/A,,Overcast,330,2011-11-17 16:15:00
11:35 AM,42.8,35.6,76,29.90,9.0,NW,12.7,20.7,0.02,,Overcast,310,2011-11-17 16:35:00
11:55 AM,41.0,33.8,76,29.90,6.0,North,10.4,18.4,0.03,,Overcast,350,2011-11-17 16:55:00
12:15 PM,41.0,35.6,81,29.88,5.0,NNW,9.2,16.1,0.01,,Overcast,340,2011-11-17 17:15:00
12:35 PM,39.2,35.6,87,29.89,6.0,NW,15.0,21.9,0.03,,Overcast,310,2011-11-17 17:35:00
12:55 PM,39.2,33.8,81,29.91,6.0,NW,6.9,23.0,0.07,,Overcast,320,2011-11-17 17:55:00
1:15 PM,37.4,33.8,87,29.92,7.0,NNW,11.5,18.4,0.06,,Overcast,330,2011-11-17 18:15:00
1:35 PM,37.4,33.8,87,29.91,10.0,NNW,8.1,21.9,0.08,,Overcast,340,2011-11-17 18:35:00
1:55 PM,37.4,33.8,87,29.92,10.0,NNW,12.7,19.6,0.11,,Overcast,340,2011-11-17 18:55:00
2:15 PM,37.4,33.8,87,29.92,10.0,NNW,9.2,17.3,0.01,,Overcast,340,2011-11-17 19:15:00
2:35 PM,37.4,33.8,87,29.92,10.0,NNW,6.9,-,0.01,,Overcast,340,2011-11-17 19:35:00
3:15 PM,39.2,33.8,81,29.91,10.0,NNW,4.6,-,N/A,,Partly Cloudy,340,2011-11-17 20:15:00
3:35 PM,39.2,33.8,81,29.91,10.0,North,3.5,-,N/A,,Clear,350,2011-11-17 20:35:00
3:55 PM,39.2,33.8,81,29.93,10.0,Calm,Calm,-,N/A,,Mostly Cloudy,0,2011-11-17 20:55:00
4:15 PM,39.2,33.8,81,29.93,10.0,NW,3.5,-,N/A,,Mostly Cloudy,320,2011-11-17 21:15:00
4:35 PM,41.0,33.8,76,29.94,10.0,NW,5.8,-,N/A,,Mostly Cloudy,320,2011-11-17 21:35:00
4:55 PM,42.8,32.0,66,29.96,10.0,NW,9.2,16.1,0.01,,Mostly Cloudy,310,2011-11-17 21:55:00
5:15 PM,42.8,30.2,61,29.96,10.0,NW,8.1,-,N/A,,Scattered Clouds,320,2011-11-17 22:15:00
5:35 PM,44.6,32.0,61,29.98,10.0,WNW,12.7,21.9,N/A,,Mostly Cloudy,300,2011-11-17 22:35:00
5:55 PM,44.6,28.4,53,29.99,10.0,NW,12.7,23.0,N/A,,Mostly Cloudy,310,2011-11-17 22:55:00
6:15 PM,44.6,26.6,49,30.00,10.0,NW,12.7,21.9,N/A,,Clear,310,2011-11-17 23:15:00
6:35 PM,44.6,28.4,53,30.02,10.0,WNW,15.0,20.7,N/A,,Partly Cloudy,300,2011-11-17 23:35:00
6:55 PM,42.8,26.6,53,30.04,10.0,WNW,16.1,27.6,N/A,,Mostly Cloudy,300,2011-11-17 23:55:00
7:15 PM,42.8,26.6,53,30.06,10.0,NW,16.1,28.8,N/A,,Mostly Cloudy,310,2011-11-18 00:15:00
7:35 PM,42.8,24.8,49,30.07,10.0,NW,12.7,23.0,N/A,,Scattered Clouds,310,2011-11-18 00:35:00
7:55 PM,42.8,26.6,53,30.07,10.0,NW,6.9,17.3,N/A,,Scattered Clouds,310,2011-11-18 00:55:00
8:35 PM,42.8,24.8,49,30.09,10.0,WNW,18.4,23.0,N/A,,Clear,290,2011-11-18 01:35:00
8:55 PM,42.8,26.6,53,30.10,10.0,WNW,13.8,23.0,N/A,,Clear,290,2011-11-18 01:55:00
9:15 PM,42.8,24.8,49,30.11,10.0,WNW,11.5,23.0,N/A,,Clear,290,2011-11-18 02:15:00
9:35 PM,42.8,24.8,49,30.12,10.0,WNW,15.0,26.5,N/A,,Clear,290,2011-11-18 02:35:00
9:55 PM,42.8,26.6,53,30.12,10.0,WNW,18.4,25.3,N/A,,Clear,300,2011-11-18 02:55:00
10:35 PM,42.8,24.8,49,30.13,10.0,WNW,15.0,23.0,N/A,,Clear,300,2011-11-18 03:35:00
10:55 PM,42.8,24.8,49,30.14,10.0,WNW,18.4,24.2,N/A,,Clear,290,2011-11-18 03:55:00
11:35 PM,42.8,23.0,46,30.16,10.0,West,8.1,25.3,N/A,,Clear,280,2011-11-18 04:35:00
11:55 PM,42.8,21.2,42,30.17,10.0,West,18.4,24.2,N/A,,Clear,280,2011-11-18 04:55:00